Time;durP1;ratioP1;P1;durP2;ratioP2;P2;SDS_P1;SDS_P2;PMS_P1;PMS_P2;Temp;Humidity;BMP_temperature;BMP_pressure;BME280_temperature;BME280_humidity;BME280_pressure;Samples;Min_cycle;Max_cycle;Signal;HPM_P1;HPM_P2
2022/04/14 00:01:08;;;;;;;37.38;17.70;;;;;;;;;;4936219;29;20024;-51
2022/04/14 00:03:34;;;;;;;105.18;52.95;;;;;;;;;;4936247;29;20024;-48
2022/04/14 00:06:00;;;;;;;52.92;26.25;;;;;;;;;;4935539;29;20469;-47
2022/04/14 00:08:26;;;;;;;51.67;28.27;;;;;;;;;;4936179;29;20028;-51
2022/04/14 00:10:52;;;;;;;86.75;37.97;;;;;;;;;;4936144;29;20030;-50
2022/04/14 00:13:18;;;;;;;92.88;38.72;;;;;;;;;;4935872;29;20024;-49
2022/04/14 00:15:45;;;;;;;114.38;42.08;;;;;;;;;;4935922;29;20034;-48
2022/04/14 00:18:11;;;;;;;137.45;52.42;;;;;;;;;;4935855;29;20027;-50
2022/04/14 00:20:37;;;;;;;95.53;43.85;;;;;;;;;;4935449;29;20038;-53
2022/04/14 00:23:03;;;;;;;83.57;37.63;;;;;;;;;;4935802;29;20020;-48
2022/04/14 00:25:29;;;;;;;86.63;39.40;;;;;;;;;;4936263;29;20086;-49
2022/04/14 00:27:55;;;;;;;84.13;36.08;;;;;;;;;;4935371;29;20412;-50
2022/04/14 00:30:21;;;;;;;68.50;32.97;;;;;;;;;;4936232;29;20495;-50
2022/04/14 00:32:47;;;;;;;64.57;28.88;;;;;;;;;;4936195;29;20159;-46
2022/04/14 00:35:14;;;;;;;58.00;27.55;;;;;;;;;;4935620;29;20028;-50
2022/04/14 00:37:40;;;;;;;50.47;24.58;;;;;;;;;;4935936;29;20024;-50
2022/04/14 00:40:07;;;;;;;43.65;23.85;;;;;;;;;;4935878;29;20020;-52
2022/04/14 00:42:33;;;;;;;53.03;22.00;;;;;;;;;;4938869;29;20442;-52
2022/04/14 00:44:59;;;;;;;42.95;20.90;;;;;;;;;;4939170;29;20382;-52
2022/04/14 00:47:25;;;;;;;47.65;22.48;;;;;;;;;;4939263;29;20071;-54
2022/04/14 00:49:51;;;;;;;39.95;19.55;;;;;;;;;;4938793;29;20035;-50
2022/04/14 00:52:18;;;;;;;42.53;20.25;;;;;;;;;;4939365;29;20051;-54
2022/04/14 00:54:44;;;;;;;38.28;20.67;;;;;;;;;;4938715;29;20110;-53
2022/04/14 00:57:10;;;;;;;47.50;21.40;;;;;;;;;;4938976;29;20023;-49
2022/04/14 00:59:37;;;;;;;42.85;18.40;;;;;;;;;;4938994;29;20031;-54
2022/04/14 01:02:03;;;;;;;37.72;18.20;;;;;;;;;;4938782;29;20056;-52
2022/04/14 01:04:30;;;;;;;31.02;16.63;;;;;;;;;;4938852;29;20031;-53
2022/04/14 01:06:57;;;;;;;26.63;15.73;;;;;;;;;;4939015;29;20027;-54
2022/04/14 01:09:26;;;;;;;31.17;15.30;;;;;;;;;;4938442;29;20082;-53
2022/04/14 01:11:53;;;;;;;35.88;15.95;;;;;;;;;;4938999;29;20035;-52
2022/04/14 01:14:25;;;;;;;30.05;15.70;;;;;;;;;;4938807;29;20028;-50
2022/04/14 01:16:51;;;;;;;26.60;14.88;;;;;;;;;;4938693;29;20118;-52
2022/04/14 01:19:18;;;;;;;32.97;15.18;;;;;;;;;;4938879;29;20023;-54
2022/04/14 01:21:48;;;;;;;33.30;15.98;;;;;;;;;;4938803;29;20024;-53
2022/04/14 01:24:15;;;;;;;28.65;15.50;;;;;;;;;;4938584;29;20103;-51
2022/04/14 01:26:41;;;;;;;33.90;17.67;;;;;;;;;;4938719;29;20023;-53
2022/04/14 01:29:07;;;;;;;34.30;17.45;;;;;;;;;;4938682;29;20040;-53
2022/04/14 01:31:33;;;;;;;31.98;16.98;;;;;;;;;;4937981;29;20024;-52
2022/04/14 01:33:59;;;;;;;31.13;17.17;;;;;;;;;;4938889;29;20020;-49
2022/04/14 01:36:25;;;;;;;26.73;14.90;;;;;;;;;;4938224;29;20499;-47
2022/04/14 01:38:51;;;;;;;31.38;15.07;;;;;;;;;;4937936;29;20035;-52
2022/04/14 01:41:17;;;;;;;24.75;12.65;;;;;;;;;;4938486;29;20032;-49
2022/04/14 01:43:43;;;;;;;26.35;14.13;;;;;;;;;;4938400;29;20023;-47
2022/04/14 01:46:10;;;;;;;43.58;18.80;;;;;;;;;;4938267;29;20470;-50
2022/04/14 01:48:38;;;;;;;31.65;17.80;;;;;;;;;;4938013;29;20040;-48
2022/04/14 01:51:05;;;;;;;38.70;18.48;;;;;;;;;;4937974;29;20059;-50
2022/04/14 01:53:31;;;;;;;32.38;17.42;;;;;;;;;;4938076;29;20059;-54
2022/04/14 01:55:57;;;;;;;33.58;17.70;;;;;;;;;;4938416;29;20067;-49
2022/04/14 01:58:23;;;;;;;36.10;17.75;;;;;;;;;;4937585;29;20023;-53
2022/04/14 02:00:49;;;;;;;35.67;16.67;;;;;;;;;;4938095;29;20024;-50
2022/04/14 02:03:15;;;;;;;38.65;17.67;;;;;;;;;;4937789;29;20154;-53
2022/04/14 02:05:42;;;;;;;32.63;17.50;;;;;;;;;;4937281;29;20035;-49
2022/04/14 02:08:08;;;;;;;35.95;17.48;;;;;;;;;;4937899;29;20031;-47
2022/04/14 02:10:34;;;;;;;30.40;16.08;;;;;;;;;;4937648;29;20031;-49
2022/04/14 02:13:00;;;;;;;33.00;17.23;;;;;;;;;;4937533;29;20074;-52
2022/04/14 02:15:26;;;;;;;32.55;17.00;;;;;;;;;;4938071;29;20074;-49
2022/04/14 02:17:52;;;;;;;33.50;15.70;;;;;;;;;;4937413;29;20027;-47
2022/04/14 02:20:19;;;;;;;27.92;15.75;;;;;;;;;;4937338;29;20071;-50
2022/04/14 02:22:45;;;;;;;38.33;16.25;;;;;;;;;;4937435;29;20405;-49
2022/04/14 02:25:11;;;;;;;27.40;14.23;;;;;;;;;;4937832;29;20024;-49
2022/04/14 02:27:37;;;;;;;31.83;14.95;;;;;;;;;;4936859;29;20059;-53
2022/04/14 02:30:04;;;;;;;25.48;14.00;;;;;;;;;;4937378;29;20385;-48
2022/04/14 02:32:30;;;;;;;27.60;13.63;;;;;;;;;;4937327;29;20032;-53
2022/04/14 02:34:56;;;;;;;52.17;33.20;;;;;;;;;;4937035;29;20024;-51
2022/04/14 02:37:22;;;;;;;35.42;20.65;;;;;;;;;;4937125;29;20028;-52
2022/04/14 02:39:48;;;;;;;29.15;17.70;;;;;;;;;;4936761;29;20509;-54
2022/04/14 02:42:15;;;;;;;44.30;23.15;;;;;;;;;;4937013;29;20035;-56
2022/04/14 02:44:41;;;;;;;49.60;24.85;;;;;;;;;;4937223;29;20024;-51
2022/04/14 02:47:07;;;;;;;39.40;21.10;;;;;;;;;;4936882;29;20028;-54
2022/04/14 02:49:33;;;;;;;41.63;21.52;;;;;;;;;;4936921;29;20032;-54
2022/04/14 02:51:59;;;;;;;35.55;18.58;;;;;;;;;;4937017;29;20048;-50
2022/04/14 02:54:25;;;;;;;40.78;20.67;;;;;;;;;;4936524;29;20536;-52
2022/04/14 02:56:51;;;;;;;37.67;19.45;;;;;;;;;;4936778;29;20046;-52
2022/04/14 02:59:17;;;;;;;51.45;22.40;;;;;;;;;;4936799;29;20481;-53
2022/04/14 03:01:43;;;;;;;45.40;21.50;;;;;;;;;;4936630;29;20028;-51
2022/04/14 03:04:10;;;;;;;47.05;20.00;;;;;;;;;;4936198;29;20032;-52
2022/04/14 03:06:36;;;;;;;46.72;18.77;;;;;;;;;;4936781;29;20122;-51
2022/04/14 03:09:02;;;;;;;36.13;17.55;;;;;;;;;;4936506;29;20042;-50
2022/04/14 03:11:28;;;;;;;51.50;18.02;;;;;;;;;;4937134;29;20038;-53
2022/04/14 03:13:54;;;;;;;42.90;16.67;;;;;;;;;;4936807;29;20028;-48
2022/04/14 03:16:20;;;;;;;30.38;15.40;;;;;;;;;;4935288;29;20389;-54
2022/04/14 03:18:46;;;;;;;29.42;14.32;;;;;;;;;;4936447;29;20023;-49
2022/04/14 03:21:13;;;;;;;30.48;13.75;;;;;;;;;;4936673;29;20036;-50
2022/04/14 03:23:39;;;;;;;28.77;12.15;;;;;;;;;;4936240;29;20019;-49
2022/04/14 03:26:08;;;;;;;27.23;12.38;;;;;;;;;;4936439;29;20039;-50
2022/04/14 03:28:35;;;;;;;27.67;11.75;;;;;;;;;;4936419;29;20024;-49
2022/04/14 03:31:01;;;;;;;20.65;11.80;;;;;;;;;;4936464;29;20055;-51
2022/04/14 03:33:27;;;;;;;24.15;11.13;;;;;;;;;;4936365;29;20027;-49
2022/04/14 03:35:53;;;;;;;25.50;11.68;;;;;;;;;;4936109;29;20114;-51
2022/04/14 03:38:19;;;;;;;23.55;11.13;;;;;;;;;;4936150;29;20418;-53
2022/04/14 03:40:46;;;;;;;30.55;11.10;;;;;;;;;;4936640;29;20020;-51
2022/04/14 03:43:12;;;;;;;17.08;9.45;;;;;;;;;;4936347;29;20024;-53
2022/04/14 03:45:38;;;;;;;23.65;10.15;;;;;;;;;;4936201;29;20027;-53
2022/04/14 03:48:04;;;;;;;23.65;11.65;;;;;;;;;;4936423;29;20027;-51
2022/04/14 03:50:30;;;;;;;22.15;10.98;;;;;;;;;;4936051;29;20082;-53
2022/04/14 03:52:57;;;;;;;23.15;11.32;;;;;;;;;;4935919;29;20413;-52
2022/04/14 03:55:23;;;;;;;25.85;10.93;;;;;;;;;;4936074;29;20020;-48
2022/04/14 03:57:49;;;;;;;19.38;10.70;;;;;;;;;;4935721;29;20038;-51
2022/04/14 04:00:15;;;;;;;21.08;10.77;;;;;;;;;;4936221;29;20039;-48
2022/04/14 04:02:41;;;;;;;23.48;10.63;;;;;;;;;;4936292;29;20036;-50
2022/04/14 04:05:08;;;;;;;20.25;11.18;;;;;;;;;;4935500;29;20024;-48
2022/04/14 04:07:34;;;;;;;24.23;12.68;;;;;;;;;;4935643;29;20030;-53
2022/04/14 04:10:00;;;;;;;25.15;12.38;;;;;;;;;;4936083;29;20079;-51
2022/04/14 04:12:26;;;;;;;20.73;11.60;;;;;;;;;;4935987;29;20083;-51
2022/04/14 04:14:52;;;;;;;30.23;12.98;;;;;;;;;;4936848;29;20067;-52
2022/04/14 04:17:18;;;;;;;27.73;12.85;;;;;;;;;;4939425;29;20090;-54
2022/04/14 04:19:44;;;;;;;21.58;11.68;;;;;;;;;;4939184;29;20035;-49
2022/04/14 04:22:11;;;;;;;24.70;11.30;;;;;;;;;;4939672;29;20426;-54
2022/04/14 04:24:44;;;;;;;22.58;11.75;;;;;;;;;;4939060;29;20020;-52
2022/04/14 04:27:10;;;;;;;26.13;11.43;;;;;;;;;;4939388;29;20063;-52
2022/04/14 04:29:37;;;;;;;51.90;27.60;;;;;;;;;;4939573;29;20036;-52
2022/04/14 04:32:03;;;;;;;48.15;22.55;;;;;;;;;;4938312;29;20473;-48
2022/04/14 04:34:29;;;;;;;35.88;19.25;;;;;;;;;;4939189;29;20038;-50
2022/04/14 04:36:55;;;;;;;48.00;21.15;;;;;;;;;;4939124;29;20032;-52
2022/04/14 04:39:21;;;;;;;51.28;19.75;;;;;;;;;;4938911;29;20059;-51
2022/04/14 04:41:48;;;;;;;49.55;20.85;;;;;;;;;;4939361;29;20016;-54
2022/04/14 04:44:14;;;;;;;50.13;20.45;;;;;;;;;;4939251;29;20028;-52
2022/04/14 04:46:40;;;;;;;52.28;22.48;;;;;;;;;;4939026;29;20082;-53
2022/04/14 04:49:06;;;;;;;44.35;22.05;;;;;;;;;;4939074;29;20027;-48
2022/04/14 04:51:32;;;;;;;46.17;21.15;;;;;;;;;;4939122;29;20051;-53
2022/04/14 04:53:58;;;;;;;48.72;24.05;;;;;;;;;;4938772;29;20039;-53
2022/04/14 04:56:25;;;;;;;64.15;29.50;;;;;;;;;;4939349;29;20095;-53
2022/04/14 04:58:51;;;;;;;52.47;22.45;;;;;;;;;;4939347;29;20059;-50
2022/04/14 05:01:17;;;;;;;49.13;23.02;;;;;;;;;;4939061;29;20028;-47
2022/04/14 05:03:43;;;;;;;60.50;32.50;;;;;;;;;;4939041;29;20364;-53
2022/04/14 05:06:09;;;;;;;65.60;35.42;;;;;;;;;;4937141;29;20036;-48
2022/04/14 05:08:35;;;;;;;64.85;34.72;;;;;;;;;;4938724;29;20028;-53
2022/04/14 05:11:01;;;;;;;67.20;35.78;;;;;;;;;;4939012;29;20043;-51
2022/04/14 05:13:28;;;;;;;54.13;28.13;;;;;;;;;;4938714;29;20470;-50
2022/04/14 05:15:54;;;;;;;52.33;25.83;;;;;;;;;;4939091;29;20024;-49
2022/04/14 05:18:20;;;;;;;53.63;27.02;;;;;;;;;;4938850;29;20020;-52
2022/04/14 05:20:46;;;;;;;53.85;32.28;;;;;;;;;;4939018;29;20034;-48
2022/04/14 05:23:12;;;;;;;57.92;32.55;;;;;;;;;;4938700;29;20377;-49
2022/04/14 05:25:42;;;;;;;54.00;26.58;;;;;;;;;;4938623;29;20028;-53
2022/04/14 05:28:08;;;;;;;49.65;26.00;;;;;;;;;;4937633;29;20043;-51
2022/04/14 05:30:34;;;;;;;50.33;24.48;;;;;;;;;;4938581;29;20027;-50
2022/04/14 05:33:00;;;;;;;60.67;26.50;;;;;;;;;;4938641;29;20034;-52
2022/04/14 05:35:26;;;;;;;48.85;25.02;;;;;;;;;;4938505;29;20078;-51
2022/04/14 05:37:52;;;;;;;50.65;24.13;;;;;;;;;;4938535;29;20020;-51
2022/04/14 05:40:19;;;;;;;48.33;22.08;;;;;;;;;;4938438;29;20023;-50
2022/04/14 05:42:48;;;;;;;54.03;24.75;;;;;;;;;;4938132;29;20086;-51
2022/04/14 05:45:14;;;;;;;35.30;16.27;;;;;;;;;;4938325;29;20020;-53
2022/04/14 05:47:40;;;;;;;38.58;14.63;;;;;;;;;;4937967;29;20091;-49
2022/04/14 05:50:07;;;;;;;31.83;14.80;;;;;;;;;;4938343;29;20038;-51
2022/04/14 05:52:33;;;;;;;34.00;15.63;;;;;;;;;;4938244;29;20370;-48
2022/04/14 05:55:01;;;;;;;46.38;23.08;;;;;;;;;;4937999;29;20016;-50
2022/04/14 05:57:28;;;;;;;43.60;21.13;;;;;;;;;;4937616;29;20465;-49
2022/04/14 05:59:54;;;;;;;51.38;21.55;;;;;;;;;;4938388;29;20035;-51
2022/04/14 06:02:20;;;;;;;48.85;21.45;;;;;;;;;;4938106;29;20414;-50
2022/04/14 06:04:46;;;;;;;40.08;18.67;;;;;;;;;;4938021;29;20110;-53
2022/04/14 06:07:13;;;;;;;35.17;15.35;;;;;;;;;;4937626;29;20027;-49
2022/04/14 06:09:39;;;;;;;47.08;20.42;;;;;;;;;;4937325;29;20473;-51
2022/04/14 06:12:05;;;;;;;45.15;20.15;;;;;;;;;;4937929;29;20074;-52
2022/04/14 06:14:33;;;;;;;43.97;20.35;;;;;;;;;;4937582;29;20031;-50
2022/04/14 06:16:59;;;;;;;41.75;20.27;;;;;;;;;;4937412;29;20086;-49
2022/04/14 06:19:25;;;;;;;31.88;15.57;;;;;;;;;;4937684;29;20039;-50
2022/04/14 06:21:52;;;;;;;25.90;14.80;;;;;;;;;;4937724;29;20095;-51
2022/04/14 06:24:18;;;;;;;38.17;15.68;;;;;;;;;;4937297;29;20028;-53
2022/04/14 06:26:44;;;;;;;27.20;14.40;;;;;;;;;;4938073;29;20050;-51
2022/04/14 06:29:10;;;;;;;24.85;14.05;;;;;;;;;;4937291;29;20023;-52
2022/04/14 06:31:37;;;;;;;30.30;13.93;;;;;;;;;;4937480;29;20104;-51
2022/04/14 06:34:06;;;;;;;26.60;13.35;;;;;;;;;;4937247;29;20025;-50
2022/04/14 06:36:32;;;;;;;29.75;14.23;;;;;;;;;;4937410;29;20110;-49
2022/04/14 06:38:58;;;;;;;29.73;16.17;;;;;;;;;;4936748;29;20469;-49
2022/04/14 06:41:26;;;;;;;32.00;16.33;;;;;;;;;;4937003;29;20031;-48
2022/04/14 06:43:53;;;;;;;33.83;16.95;;;;;;;;;;4937258;29;20058;-50
2022/04/14 06:46:20;;;;;;;26.05;13.68;;;;;;;;;;4936871;29;20436;-54
2022/04/14 06:48:46;;;;;;;28.67;14.23;;;;;;;;;;4936829;29;20028;-53
2022/04/14 06:51:12;;;;;;;25.13;12.05;;;;;;;;;;4937221;29;20027;-53
2022/04/14 06:53:38;;;;;;;22.40;11.27;;;;;;;;;;4936523;29;20019;-53
2022/04/14 06:56:05;;;;;;;22.30;11.77;;;;;;;;;;4937122;29;20032;-51
2022/04/14 06:58:31;;;;;;;20.25;9.68;;;;;;;;;;4936455;29;20031;-53
2022/04/14 07:00:57;;;;;;;21.65;10.10;;;;;;;;;;4937039;29;20521;-55
2022/04/14 07:03:26;;;;;;;18.65;9.02;;;;;;;;;;4936720;29;20020;-50
2022/04/14 07:05:56;;;;;;;17.20;8.98;;;;;;;;;;4936789;29;20055;-48
2022/04/14 07:08:24;;;;;;;17.25;8.23;;;;;;;;;;4936817;29;20043;-48
2022/04/14 07:10:51;;;;;;;13.18;7.53;;;;;;;;;;4936579;29;20055;-51
2022/04/14 07:13:17;;;;;;;16.52;8.45;;;;;;;;;;4936448;29;20110;-49
2022/04/14 07:15:43;;;;;;;15.60;8.38;;;;;;;;;;4936758;29;20057;-53
2022/04/14 07:18:09;;;;;;;13.15;8.07;;;;;;;;;;4936645;29;20020;-53
2022/04/14 07:20:36;;;;;;;15.18;7.85;;;;;;;;;;4936453;29;20028;-52
2022/04/14 07:23:03;;;;;;;13.38;7.78;;;;;;;;;;4936552;29;20087;-51
2022/04/14 07:25:35;;;;;;;19.40;8.85;;;;;;;;;;4936979;29;20082;-53
2022/04/14 07:28:02;;;;;;;12.60;7.55;;;;;;;;;;4936510;29;20072;-54
2022/04/14 07:30:28;;;;;;;21.33;8.18;;;;;;;;;;4936228;29;20028;-51
2022/04/14 07:32:54;;;;;;;15.00;8.48;;;;;;;;;;4936787;29;20102;-52
2022/04/14 07:35:22;;;;;;;14.80;7.38;;;;;;;;;;4935888;29;20478;-52
2022/04/14 07:37:51;;;;;;;15.90;8.00;;;;;;;;;;4936472;29;20040;-49
2022/04/14 07:40:18;;;;;;;18.88;8.55;;;;;;;;;;4936475;29;20036;-53
2022/04/14 07:42:45;;;;;;;13.63;7.55;;;;;;;;;;4935777;29;20020;-52
2022/04/14 07:45:12;;;;;;;26.05;8.70;;;;;;;;;;4936334;29;20032;-52
2022/04/14 07:47:42;;;;;;;16.15;8.13;;;;;;;;;;4935629;29;20027;-53
2022/04/14 07:50:09;;;;;;;20.23;10.18;;;;;;;;;;4939365;29;20028;-52
2022/04/14 07:52:45;;;;;;;19.05;9.07;;;;;;;;;;4942652;29;20075;-52
2022/04/14 07:55:11;;;;;;;18.00;8.35;;;;;;;;;;4942017;29;20035;-52
2022/04/14 07:57:37;;;;;;;14.88;8.25;;;;;;;;;;4943213;29;20078;-52
2022/04/14 08:00:05;;;;;;;14.32;8.50;;;;;;;;;;4942858;29;20023;-49
2022/04/14 08:02:31;;;;;;;19.48;9.35;;;;;;;;;;4941926;29;20035;-53
2022/04/14 08:04:57;;;;;;;18.52;9.32;;;;;;;;;;4942530;29;20030;-53
2022/04/14 08:07:23;;;;;;;17.85;8.98;;;;;;;;;;4942605;29;20050;-53
2022/04/14 08:09:49;;;;;;;19.85;9.02;;;;;;;;;;4942054;29;20023;-53
2022/04/14 08:12:15;;;;;;;15.25;8.50;;;;;;;;;;4942462;29;20028;-55
2022/04/14 08:14:42;;;;;;;17.38;9.45;;;;;;;;;;4942520;29;20129;-52
2022/04/14 08:17:08;;;;;;;16.70;8.57;;;;;;;;;;4942178;29;20032;-52
2022/04/14 08:19:34;;;;;;;14.60;8.52;;;;;;;;;;4942234;29;20016;-49
2022/04/14 08:22:01;;;;;;;15.90;9.30;;;;;;;;;;4942459;29;20026;-54
2022/04/14 08:24:28;;;;;;;22.27;9.30;;;;;;;;;;4942171;29;20102;-52
2022/04/14 08:26:54;;;;;;;18.38;8.23;;;;;;;;;;4942062;29;20024;-54
2022/04/14 08:29:20;;;;;;;16.15;8.85;;;;;;;;;;4942453;29;20032;-54
2022/04/14 08:31:46;;;;;;;14.25;8.40;;;;;;;;;;4942061;29;20032;-54
2022/04/14 08:34:12;;;;;;;19.52;8.23;;;;;;;;;;4942812;29;20110;-52
2022/04/14 08:36:38;;;;;;;17.17;7.10;;;;;;;;;;4942023;29;20432;-53
2022/04/14 08:39:05;;;;;;;20.70;7.85;;;;;;;;;;4942326;29;20031;-54
2022/04/14 08:41:33;;;;;;;12.55;7.65;;;;;;;;;;4942632;29;20031;-54
2022/04/14 08:44:01;;;;;;;17.33;8.55;;;;;;;;;;4942007;29;20028;-51
2022/04/14 08:46:28;;;;;;;19.77;8.05;;;;;;;;;;4942133;29;20035;-50
2022/04/14 08:48:56;;;;;;;13.85;7.45;;;;;;;;;;4942349;29;20028;-52
2022/04/14 08:51:23;;;;;;;21.10;7.18;;;;;;;;;;4941619;29;20111;-52
2022/04/14 08:53:50;;;;;;;18.05;7.70;;;;;;;;;;4942357;29;20110;-53
2022/04/14 08:56:16;;;;;;;16.45;8.23;;;;;;;;;;4942530;29;20042;-49
2022/04/14 08:58:43;;;;;;;11.73;7.55;;;;;;;;;;4941582;29;20473;-55
2022/04/14 09:01:13;;;;;;;17.85;7.97;;;;;;;;;;4939756;29;20054;-52
2022/04/14 09:03:39;;;;;;;17.60;8.35;;;;;;;;;;4939122;29;20075;-54
2022/04/14 09:06:05;;;;;;;12.45;7.05;;;;;;;;;;4938804;29;20036;-52
2022/04/14 09:08:32;;;;;;;12.88;7.43;;;;;;;;;;4939116;29;20065;-53
2022/04/14 09:10:58;;;;;;;23.60;18.50;;;;;;;;;;4939011;29;20107;-54
2022/04/14 09:13:24;;;;;;;15.70;6.55;;;;;;;;;;4938367;29;20039;-54
2022/04/14 09:15:50;;;;;;;10.10;4.85;;;;;;;;;;4938974;29;20098;-53
2022/04/14 09:18:17;;;;;;;5.65;4.20;;;;;;;;;;4938667;29;20028;-52
2022/04/14 09:20:48;;;;;;;9.27;4.90;;;;;;;;;;4938864;29;20028;-51
2022/04/14 09:23:20;;;;;;;10.13;4.80;;;;;;;;;;4938612;29;20059;-54
2022/04/14 09:25:47;;;;;;;8.82;4.90;;;;;;;;;;4938105;29;20024;-50
2022/04/14 09:28:17;;;;;;;10.25;5.95;;;;;;;;;;4938429;29;20496;-49
2022/04/14 09:31:02;;;;;;;7.68;4.30;;;;;;;;;;4939003;29;20047;-47
2022/04/14 09:33:29;;;;;;;11.40;4.95;;;;;;;;;;4938298;29;20493;-50
2022/04/14 09:36:23;;;;;;;9.18;4.32;;;;;;;;;;4938584;29;20030;-48
2022/04/14 09:39:05;;;;;;;12.70;3.92;;;;;;;;;;4936512;29;20087;-52
2022/04/14 09:41:31;;;;;;;;;;;;;;;;;;4938602;29;20047;-48
2022/04/14 09:43:58;;;;;;;7.05;4.25;;;;;;;;;;4938533;29;19907;-54
2022/04/14 09:46:25;;;;;;;13.02;4.50;;;;;;;;;;4938557;29;20060;-50
2022/04/14 09:49:03;;;;;;;8.38;4.18;;;;;;;;;;4938506;29;20026;-51
2022/04/14 09:51:29;;;;;;;13.55;7.15;;;;;;;;;;4938203;29;20020;-50
2022/04/14 09:54:24;;;;;;;10.02;4.47;;;;;;;;;;4938487;29;20075;-53
2022/04/14 09:56:54;;;;;;;7.80;4.68;;;;;;;;;;4925617;29;20036;-52
2022/04/14 09:59:25;;;;;;;10.65;4.47;;;;;;;;;;4937903;29;20034;-54
2022/04/14 10:02:10;;;;;;;11.00;7.03;;;;;;;;;;4938163;29;20023;-53
2022/04/14 10:04:40;;;;;;;9.35;5.40;;;;;;;;;;4938282;29;20465;-54
2022/04/14 10:07:06;;;;;;;8.52;4.22;;;;;;;;;;4938265;29;20036;-51
2022/04/14 10:09:34;;;;;;;8.15;5.05;;;;;;;;;;4937314;29;20039;-54
2022/04/14 10:12:00;;;;;;;11.00;6.20;;;;;;;;;;4937558;29;20020;-52
2022/04/14 10:14:26;;;;;;;14.30;6.03;;;;;;;;;;4937250;29;20481;-53
2022/04/14 10:16:52;;;;;;;6.82;3.47;;;;;;;;;;4937774;29;20114;-52
2022/04/14 10:19:19;;;;;;;9.88;3.47;;;;;;;;;;4937810;29;20106;-55
2022/04/14 10:21:46;;;;;;;6.25;3.20;;;;;;;;;;4937503;29;20369;-50
2022/04/14 10:24:12;;;;;;;5.05;3.28;;;;;;;;;;4937716;29;20032;-50
2022/04/14 10:26:38;;;;;;;5.25;2.80;;;;;;;;;;4937376;29;20036;-54
2022/04/14 10:29:06;;;;;;;5.80;3.08;;;;;;;;;;4937377;29;20032;-55
2022/04/14 10:31:36;;;;;;;5.55;3.05;;;;;;;;;;4937886;29;20380;-54
2022/04/14 10:34:04;;;;;;;7.13;4.10;;;;;;;;;;4937603;29;20358;-54
2022/04/14 10:36:32;;;;;;;5.95;4.22;;;;;;;;;;4937224;29;20028;-50
2022/04/14 10:38:59;;;;;;;10.23;4.35;;;;;;;;;;4937240;29;20393;-47
2022/04/14 10:41:28;;;;;;;4.93;2.90;;;;;;;;;;4937172;29;20023;-54
2022/04/14 10:43:59;;;;;;;6.68;3.45;;;;;;;;;;4936853;29;20540;-52
2022/04/14 10:46:25;;;;;;;;;;;;;;;;;;4938080;29;20488;-48
2022/04/14 10:49:09;;;;;;;5.70;3.22;;;;;;;;;;4937656;29;19907;-50
2022/04/14 10:51:36;;;;;;;8.80;3.50;;;;;;;;;;4936519;29;20047;-50
2022/04/14 10:54:09;;;;;;;4.68;3.20;;;;;;;;;;4937297;29;20500;-53
2022/04/14 10:56:35;;;;;;;6.93;3.50;;;;;;;;;;4937484;29;20079;-51
2022/04/14 10:59:02;;;;;;;7.03;3.67;;;;;;;;;;4937198;29;20477;-53
2022/04/14 11:01:47;;;;;;;6.90;3.83;;;;;;;;;;4937499;29;20397;-51
2022/04/14 11:04:28;;;;;;;8.73;3.78;;;;;;;;;;4936642;29;20019;-51
2022/04/14 11:06:54;;;;;;;9.25;4.43;;;;;;;;;;4936795;29;20067;-51
2022/04/14 11:09:41;;;;;;;12.88;4.38;;;;;;;;;;4936819;29;20119;-54
2022/04/14 11:12:12;;;;;;;9.48;4.32;;;;;;;;;;4936799;29;20441;-52
2022/04/14 11:14:50;;;;;;;10.10;4.00;;;;;;;;;;4937250;29;20031;-55
2022/04/14 11:17:50;;;;;;;4.93;3.60;;;;;;;;;;4936854;29;20032;-52
2022/04/14 11:20:19;;;;;;;8.25;3.80;;;;;;;;;;4926131;29;20042;-50
2022/04/14 11:23:04;;;;;;;5.60;3.72;;;;;;;;;;4936792;29;20035;-51
2022/04/14 11:25:42;;;;;;;7.82;3.85;;;;;;;;;;4935734;29;20059;-51
2022/04/14 11:28:24;;;;;;;10.75;4.72;;;;;;;;;;4937168;29;20393;-53
2022/04/14 11:30:51;;;;;;;6.50;4.28;;;;;;;;;;4936637;29;20478;-53
2022/04/14 11:33:32;;;;;;;6.63;3.75;;;;;;;;;;4936117;29;20473;-50
2022/04/14 11:35:58;;;;;;;;;;;;;;;;;;4936846;29;20020;-53
2022/04/14 11:38:43;;;;;;;8.50;3.92;;;;;;;;;;4936843;29;19907;-51
2022/04/14 11:41:27;;;;;;;9.20;3.90;;;;;;;;;;4936819;29;20027;-55
2022/04/14 11:43:55;;;;;;;5.55;3.35;;;;;;;;;;4936825;29;20027;-52
2022/04/14 11:46:22;;;;;;;7.22;4.22;;;;;;;;;;4936182;29;20529;-50
2022/04/14 11:48:49;;;;;;;5.97;4.07;;;;;;;;;;4936190;29;20023;-50
2022/04/14 11:51:18;;;;;;;6.18;4.10;;;;;;;;;;4936053;29;20020;-50
2022/04/14 11:53:44;;;;;;;5.70;3.70;;;;;;;;;;4935959;29;20508;-53
2022/04/14 11:56:19;;;;;;;5.53;3.30;;;;;;;;;;4936417;29;20047;-53
2022/04/14 11:58:46;;;;;;;5.82;2.80;;;;;;;;;;4936428;29;20107;-54
2022/04/14 12:01:13;;;;;;;5.60;3.75;;;;;;;;;;4936192;29;20036;-53
2022/04/14 12:03:39;;;;;;;5.63;3.17;;;;;;;;;;4935885;29;20023;-50
2022/04/14 12:06:06;;;;;;;5.43;3.08;;;;;;;;;;4935970;29;20027;-50
2022/04/14 12:08:33;;;;;;;5.78;3.20;;;;;;;;;;4935403;29;20038;-51
2022/04/14 12:11:03;;;;;;;6.10;2.90;;;;;;;;;;4935586;29;20112;-52
2022/04/14 12:13:34;;;;;;;7.65;3.30;;;;;;;;;;4934331;29;20028;-50
2022/04/14 12:16:01;;;;;;;8.27;3.17;;;;;;;;;;4934116;29;20052;-51
2022/04/14 12:18:27;;;;;;;7.30;2.80;;;;;;;;;;4935981;29;20028;-51
2022/04/14 12:20:53;;;;;;;6.70;2.70;;;;;;;;;;4935711;29;20056;-52
2022/04/14 12:23:19;;;;;;;6.72;2.90;;;;;;;;;;4935961;29;20091;-52
2022/04/14 12:25:46;;;;;;;5.20;3.13;;;;;;;;;;4935945;29;20023;-49
2022/04/14 12:28:12;;;;;;;5.22;3.40;;;;;;;;;;4935296;29;20139;-52
2022/04/14 12:30:41;;;;;;;4.45;3.13;;;;;;;;;;4935393;29;20030;-52
2022/04/14 12:33:07;;;;;;;7.18;3.55;;;;;;;;;;4935690;29;20079;-52
2022/04/14 12:35:37;;;;;;;4.22;3.10;;;;;;;;;;4935877;29;20067;-50
2022/04/14 12:38:24;;;;;;;4.15;2.88;;;;;;;;;;4939072;29;20028;-46
2022/04/14 12:40:54;;;;;;;6.38;3.90;;;;;;;;;;4938489;29;20028;-51
2022/04/14 12:43:21;;;;;;;;;;;;;;;;;;4939785;29;20028;-47
2022/04/14 12:45:47;;;;;;;6.70;3.70;;;;;;;;;;4939761;29;20336;-52
2022/04/14 12:48:24;;;;;;;6.10;3.50;;;;;;;;;;4939422;29;20040;-49
2022/04/14 12:50:58;;;;;;;11.27;2.78;;;;;;;;;;4938939;29;20496;-55
2022/04/14 12:53:24;;;;;;;7.47;3.80;;;;;;;;;;4938855;29;20462;-52
2022/04/14 12:55:51;;;;;;;4.85;3.35;;;;;;;;;;4938940;29;20028;-52
2022/04/14 12:58:17;;;;;;;5.82;3.38;;;;;;;;;;4939304;29;20130;-51
2022/04/14 13:00:44;;;;;;;4.18;3.10;;;;;;;;;;4939252;29;20027;-53
2022/04/14 13:03:16;;;;;;;4.78;2.80;;;;;;;;;;4939037;29;20111;-52
2022/04/14 13:05:43;;;;;;;12.10;5.00;;;;;;;;;;4939236;29;20028;-50
2022/04/14 13:08:09;;;;;;;6.45;3.55;;;;;;;;;;4938778;29;20111;-53
2022/04/14 13:10:39;;;;;;;6.65;2.85;;;;;;;;;;4938751;29;20024;-51
2022/04/14 13:13:06;;;;;;;4.93;2.85;;;;;;;;;;4939595;29;20028;-51
2022/04/14 13:15:33;;;;;;;7.45;2.83;;;;;;;;;;4939239;29;20034;-55
2022/04/14 13:18:00;;;;;;;8.30;3.15;;;;;;;;;;4938801;29;20358;-54
2022/04/14 13:20:38;;;;;;;5.75;2.75;;;;;;;;;;4938962;29;20102;-55
2022/04/14 13:23:12;;;;;;;5.50;2.70;;;;;;;;;;4939112;29;20114;-52
2022/04/14 13:25:39;;;;;;;5.35;2.58;;;;;;;;;;4938594;29;20108;-52
2022/04/14 13:28:06;;;;;;;4.22;2.60;;;;;;;;;;4938502;29;20437;-53
2022/04/14 13:30:32;;;;;;;2.53;2.33;;;;;;;;;;4938417;29;20086;-53
2022/04/14 13:32:58;;;;;;;4.25;2.55;;;;;;;;;;4939255;29;20024;-55
2022/04/14 13:35:25;;;;;;;6.72;2.90;;;;;;;;;;4938944;29;20034;-51
2022/04/14 13:37:51;;;;;;;5.35;3.67;;;;;;;;;;4938246;29;20035;-54
2022/04/14 13:40:18;;;;;;;4.28;2.88;;;;;;;;;;4938555;29;20055;-52
2022/04/14 13:42:44;;;;;;;3.15;2.65;;;;;;;;;;4938260;29;20417;-53
2022/04/14 13:45:11;;;;;;;5.22;2.78;;;;;;;;;;4938207;29;20024;-55
2022/04/14 13:47:41;;;;;;;4.47;3.15;;;;;;;;;;4937399;29;20036;-53
2022/04/14 13:50:10;;;;;;;3.92;2.25;;;;;;;;;;4938360;29;20433;-55
2022/04/14 13:52:37;;;;;;;5.00;2.25;;;;;;;;;;4938020;29;20094;-53
2022/04/14 13:55:04;;;;;;;3.97;2.38;;;;;;;;;;4938488;29;20484;-53
2022/04/14 13:57:30;;;;;;;5.20;2.40;;;;;;;;;;4938210;29;20032;-52
2022/04/14 13:59:56;;;;;;;2.28;1.88;;;;;;;;;;4938002;29;20405;-52
2022/04/14 14:02:22;;;;;;;4.97;2.00;;;;;;;;;;4937839;29;20083;-54
2022/04/14 14:04:48;;;;;;;2.92;2.15;;;;;;;;;;4938110;29;20028;-50
2022/04/14 14:07:15;;;;;;;6.65;2.42;;;;;;;;;;4937571;29;20031;-53
2022/04/14 14:09:41;;;;;;;3.42;1.88;;;;;;;;;;4937935;29;20023;-48
2022/04/14 14:12:08;;;;;;;6.43;2.10;;;;;;;;;;4937661;29;20032;-52
2022/04/14 14:14:34;;;;;;;3.05;2.28;;;;;;;;;;4937462;29;20055;-53
2022/04/14 14:17:01;;;;;;;4.65;2.30;;;;;;;;;;4937751;29;20035;-52
2022/04/14 14:19:27;;;;;;;2.60;2.20;;;;;;;;;;4937473;29;20023;-51
2022/04/14 14:21:53;;;;;;;4.00;2.28;;;;;;;;;;4938030;29;20020;-51
2022/04/14 14:24:19;;;;;;;4.00;2.55;;;;;;;;;;4937752;29;20024;-54
2022/04/14 14:26:46;;;;;;;5.35;2.60;;;;;;;;;;4936976;29;20506;-53
2022/04/14 14:29:12;;;;;;;3.75;2.50;;;;;;;;;;4937623;29;20038;-49
2022/04/14 14:31:39;;;;;;;6.20;2.53;;;;;;;;;;4937246;29;20490;-52